sensor_id;sensor_type;location;lat;lon;timestamp;P1;durP1;ratioP1;P2;durP2;ratioP2
18378;SDS011;27025;51.986;5.984;2023-05-07T00:01:49;23.23;;;16.73;;
18378;SDS011;27025;51.986;5.984;2023-05-07T00:04:15;22.77;;;16.73;;
18378;SDS011;27025;51.986;5.984;2023-05-07T00:06:41;24.10;;;17.30;;
18378;SDS011;27025;51.986;5.984;2023-05-07T00:09:07;24.73;;;17.40;;
18378;SDS011;27025;51.986;5.984;2023-05-07T00:11:36;18.03;;;14.43;;
18378;SDS011;27025;51.986;5.984;2023-05-07T00:14:02;13.50;;;11.97;;
18378;SDS011;27025;51.986;5.984;2023-05-07T00:16:28;13.70;;;11.33;;
18378;SDS011;27025;51.986;5.984;2023-05-07T00:18:56;11.77;;;10.57;;
18378;SDS011;27025;51.986;5.984;2023-05-07T00:21:22;11.67;;;10.57;;
18378;SDS011;27025;51.986;5.984;2023-05-07T00:23:51;14.23;;;11.00;;
18378;SDS011;27025;51.986;5.984;2023-05-07T00:26:20;11.20;;;10.00;;
18378;SDS011;27025;51.986;5.984;2023-05-07T00:28:46;11.57;;;9.87;;
18378;SDS011;27025;51.986;5.984;2023-05-07T00:31:12;13.57;;;10.60;;
18378;SDS011;27025;51.986;5.984;2023-05-07T00:33:40;13.00;;;10.57;;
18378;SDS011;27025;51.986;5.984;2023-05-07T00:36:06;11.73;;;10.63;;
18378;SDS011;27025;51.986;5.984;2023-05-07T00:38:33;11.23;;;10.23;;
18378;SDS011;27025;51.986;5.984;2023-05-07T00:40:59;11.10;;;10.00;;
18378;SDS011;27025;51.986;5.984;2023-05-07T00:43:27;12.13;;;10.87;;
18378;SDS011;27025;51.986;5.984;2023-05-07T00:45:53;12.97;;;10.30;;
18378;SDS011;27025;51.986;5.984;2023-05-07T00:48:20;12.77;;;11.47;;
18378;SDS011;27025;51.986;5.984;2023-05-07T00:50:46;12.33;;;11.23;;
18378;SDS011;27025;51.986;5.984;2023-05-07T00:53:14;12.77;;;11.23;;
18378;SDS011;27025;51.986;5.984;2023-05-07T00:55:40;12.87;;;11.53;;
18378;SDS011;27025;51.986;5.984;2023-05-07T00:58:06;13.50;;;11.37;;
18378;SDS011;27025;51.986;5.984;2023-05-07T01:00:35;13.20;;;11.90;;
18378;SDS011;27025;51.986;5.984;2023-05-07T01:03:01;12.90;;;11.80;;
18378;SDS011;27025;51.986;5.984;2023-05-07T01:05:27;12.57;;;11.13;;
18378;SDS011;27025;51.986;5.984;2023-05-07T01:07:56;14.57;;;11.90;;
18378;SDS011;27025;51.986;5.984;2023-05-07T01:10:22;13.37;;;12.07;;
18378;SDS011;27025;51.986;5.984;2023-05-07T01:12:49;15.30;;;12.67;;
18378;SDS011;27025;51.986;5.984;2023-05-07T01:15:18;13.70;;;12.33;;
18378;SDS011;27025;51.986;5.984;2023-05-07T01:17:44;13.67;;;12.30;;
18378;SDS011;27025;51.986;5.984;2023-05-07T01:20:10;14.00;;;12.60;;
18378;SDS011;27025;51.986;5.984;2023-05-07T01:22:37;14.20;;;12.80;;
18378;SDS011;27025;51.986;5.984;2023-05-07T01:25:06;15.37;;;13.23;;
18378;SDS011;27025;51.986;5.984;2023-05-07T01:27:33;14.10;;;12.67;;
18378;SDS011;27025;51.986;5.984;2023-05-07T01:30:02;14.00;;;12.60;;
18378;SDS011;27025;51.986;5.984;2023-05-07T01:32:31;14.70;;;13.23;;
18378;SDS011;27025;51.986;5.984;2023-05-07T01:34:58;14.73;;;13.43;;
18378;SDS011;27025;51.986;5.984;2023-05-07T01:37:25;14.70;;;13.13;;
18378;SDS011;27025;51.986;5.984;2023-05-07T01:39:52;16.03;;;14.33;;
18378;SDS011;27025;51.986;5.984;2023-05-07T01:42:18;15.73;;;14.23;;
18378;SDS011;27025;51.986;5.984;2023-05-07T01:44:47;15.10;;;13.70;;
18378;SDS011;27025;51.986;5.984;2023-05-07T01:47:13;15.27;;;13.77;;
18378;SDS011;27025;51.986;5.984;2023-05-07T01:49:40;15.67;;;14.27;;
18378;SDS011;27025;51.986;5.984;2023-05-07T01:52:09;15.50;;;14.10;;
18378;SDS011;27025;51.986;5.984;2023-05-07T01:54:36;16.77;;;14.40;;
18378;SDS011;27025;51.986;5.984;2023-05-07T01:57:02;15.77;;;14.30;;
18378;SDS011;27025;51.986;5.984;2023-05-07T01:59:28;16.00;;;14.40;;
18378;SDS011;27025;51.986;5.984;2023-05-07T02:01:57;17.00;;;15.40;;
18378;SDS011;27025;51.986;5.984;2023-05-07T02:04:23;16.43;;;14.93;;
18378;SDS011;27025;51.986;5.984;2023-05-07T02:06:49;16.60;;;14.90;;
18378;SDS011;27025;51.986;5.984;2023-05-07T02:09:18;18.07;;;16.33;;
18378;SDS011;27025;51.986;5.984;2023-05-07T02:11:44;17.33;;;15.63;;
18378;SDS011;27025;51.986;5.984;2023-05-07T02:14:10;16.87;;;15.23;;
18378;SDS011;27025;51.986;5.984;2023-05-07T02:16:36;17.27;;;15.77;;
18378;SDS011;27025;51.986;5.984;2023-05-07T02:19:05;18.23;;;16.23;;
18378;SDS011;27025;51.986;5.984;2023-05-07T02:21:31;17.23;;;15.63;;
18378;SDS011;27025;51.986;5.984;2023-05-07T02:23:57;17.93;;;16.17;;
18378;SDS011;27025;51.986;5.984;2023-05-07T02:26:25;17.40;;;15.63;;
18378;SDS011;27025;51.986;5.984;2023-05-07T02:28:51;17.03;;;15.27;;
18378;SDS011;27025;51.986;5.984;2023-05-07T02:31:18;17.20;;;15.43;;
18378;SDS011;27025;51.986;5.984;2023-05-07T02:33:47;16.77;;;15.23;;
18378;SDS011;27025;51.986;5.984;2023-05-07T02:36:13;17.43;;;15.73;;
18378;SDS011;27025;51.986;5.984;2023-05-07T02:38:39;17.40;;;15.73;;
18378;SDS011;27025;51.986;5.984;2023-05-07T02:41:05;17.43;;;15.63;;
18378;SDS011;27025;51.986;5.984;2023-05-07T02:43:33;18.13;;;15.87;;
18378;SDS011;27025;51.986;5.984;2023-05-07T02:48:28;17.77;;;16.17;;
18378;SDS011;27025;51.986;5.984;2023-05-07T02:50:57;17.20;;;15.53;;
18378;SDS011;27025;51.986;5.984;2023-05-07T02:53:24;17.13;;;15.33;;
18378;SDS011;27025;51.986;5.984;2023-05-07T02:55:55;17.30;;;15.27;;
18378;SDS011;27025;51.986;5.984;2023-05-07T02:58:21;17.73;;;15.93;;
18378;SDS011;27025;51.986;5.984;2023-05-07T03:00:47;17.07;;;15.50;;
18378;SDS011;27025;51.986;5.984;2023-05-07T03:03:16;17.17;;;15.47;;
18378;SDS011;27025;51.986;5.984;2023-05-07T03:05:42;16.43;;;14.90;;
18378;SDS011;27025;51.986;5.984;2023-05-07T03:08:08;16.23;;;14.67;;
18378;SDS011;27025;51.986;5.984;2023-05-07T03:10:37;17.63;;;15.87;;
18378;SDS011;27025;51.986;5.984;2023-05-07T03:13:04;17.90;;;16.03;;
18378;SDS011;27025;51.986;5.984;2023-05-07T03:15:30;17.93;;;16.27;;
18378;SDS011;27025;51.986;5.984;2023-05-07T03:17:56;18.37;;;16.33;;
18378;SDS011;27025;51.986;5.984;2023-05-07T03:20:24;18.40;;;16.63;;
18378;SDS011;27025;51.986;5.984;2023-05-07T03:22:50;17.67;;;16.00;;
18378;SDS011;27025;51.986;5.984;2023-05-07T03:25:16;17.77;;;16.13;;
18378;SDS011;27025;51.986;5.984;2023-05-07T03:27:45;17.47;;;15.77;;
18378;SDS011;27025;51.986;5.984;2023-05-07T03:30:11;16.97;;;15.33;;
18378;SDS011;27025;51.986;5.984;2023-05-07T03:32:37;17.03;;;15.33;;
18378;SDS011;27025;51.986;5.984;2023-05-07T03:35:07;16.97;;;15.20;;
18378;SDS011;27025;51.986;5.984;2023-05-07T03:37:33;17.40;;;15.70;;
18378;SDS011;27025;51.986;5.984;2023-05-07T03:39:59;19.03;;;16.37;;
18378;SDS011;27025;51.986;5.984;2023-05-07T03:42:25;19.37;;;17.47;;
18378;SDS011;27025;51.986;5.984;2023-05-07T03:44:53;18.33;;;16.60;;
18378;SDS011;27025;51.986;5.984;2023-05-07T03:47:20;19.53;;;17.63;;
18378;SDS011;27025;51.986;5.984;2023-05-07T03:49:46;20.73;;;18.70;;
18378;SDS011;27025;51.986;5.984;2023-05-07T03:52:13;20.97;;;19.00;;
18378;SDS011;27025;51.986;5.984;2023-05-07T03:54:39;21.10;;;19.07;;
18378;SDS011;27025;51.986;5.984;2023-05-07T03:57:06;22.33;;;20.03;;
18378;SDS011;27025;51.986;5.984;2023-05-07T03:59:32;23.47;;;21.17;;
18378;SDS011;27025;51.986;5.984;2023-05-07T04:02:00;23.80;;;21.60;;
18378;SDS011;27025;51.986;5.984;2023-05-07T04:04:26;23.57;;;21.43;;
18378;SDS011;27025;51.986;5.984;2023-05-07T04:06:52;24.00;;;21.90;;
18378;SDS011;27025;51.986;5.984;2023-05-07T04:09:18;23.77;;;21.57;;
18378;SDS011;27025;51.986;5.984;2023-05-07T04:11:47;24.57;;;22.10;;
18378;SDS011;27025;51.986;5.984;2023-05-07T04:14:13;24.83;;;22.43;;
18378;SDS011;27025;51.986;5.984;2023-05-07T04:16:39;25.27;;;22.97;;
18378;SDS011;27025;51.986;5.984;2023-05-07T04:19:05;25.40;;;23.10;;
18378;SDS011;27025;51.986;5.984;2023-05-07T04:21:33;24.87;;;22.53;;
18378;SDS011;27025;51.986;5.984;2023-05-07T04:23:59;25.73;;;23.23;;
18378;SDS011;27025;51.986;5.984;2023-05-07T04:26:25;24.60;;;22.30;;
18378;SDS011;27025;51.986;5.984;2023-05-07T04:28:55;25.47;;;23.00;;
18378;SDS011;27025;51.986;5.984;2023-05-07T04:31:22;25.17;;;22.83;;
18378;SDS011;27025;51.986;5.984;2023-05-07T04:33:48;25.83;;;23.43;;
18378;SDS011;27025;51.986;5.984;2023-05-07T04:36:15;26.00;;;23.50;;
18378;SDS011;27025;51.986;5.984;2023-05-07T04:38:42;25.77;;;23.33;;
18378;SDS011;27025;51.986;5.984;2023-05-07T04:41:08;26.40;;;24.10;;
18378;SDS011;27025;51.986;5.984;2023-05-07T04:43:34;26.47;;;24.07;;
18378;SDS011;27025;51.986;5.984;2023-05-07T04:46:03;27.57;;;25.13;;
18378;SDS011;27025;51.986;5.984;2023-05-07T04:48:29;27.13;;;24.63;;
18378;SDS011;27025;51.986;5.984;2023-05-07T04:50:56;27.70;;;25.13;;
18378;SDS011;27025;51.986;5.984;2023-05-07T04:53:24;27.13;;;24.60;;
18378;SDS011;27025;51.986;5.984;2023-05-07T04:55:59;27.07;;;24.67;;
18378;SDS011;27025;51.986;5.984;2023-05-07T04:58:25;27.03;;;24.50;;
18378;SDS011;27025;51.986;5.984;2023-05-07T05:00:52;27.50;;;25.03;;
18378;SDS011;27025;51.986;5.984;2023-05-07T05:03:18;28.17;;;25.47;;
18378;SDS011;27025;51.986;5.984;2023-05-07T05:05:48;27.30;;;24.73;;
18378;SDS011;27025;51.986;5.984;2023-05-07T05:08:14;27.17;;;24.60;;
18378;SDS011;27025;51.986;5.984;2023-05-07T05:10:40;27.07;;;24.57;;
18378;SDS011;27025;51.986;5.984;2023-05-07T05:13:09;28.20;;;25.70;;
18378;SDS011;27025;51.986;5.984;2023-05-07T05:15:38;27.27;;;24.77;;
18378;SDS011;27025;51.986;5.984;2023-05-07T05:18:06;26.50;;;24.10;;
18378;SDS011;27025;51.986;5.984;2023-05-07T05:20:32;27.77;;;24.93;;
18378;SDS011;27025;51.986;5.984;2023-05-07T05:22:58;27.93;;;25.43;;
18378;SDS011;27025;51.986;5.984;2023-05-07T05:25:24;28.50;;;26.00;;
18378;SDS011;27025;51.986;5.984;2023-05-07T05:27:53;27.33;;;24.90;;
18378;SDS011;27025;51.986;5.984;2023-05-07T05:30:19;27.80;;;25.30;;
18378;SDS011;27025;51.986;5.984;2023-05-07T05:32:45;27.57;;;25.07;;
18378;SDS011;27025;51.986;5.984;2023-05-07T05:35:14;26.73;;;24.33;;
18378;SDS011;27025;51.986;5.984;2023-05-07T05:37:41;27.33;;;24.83;;
18378;SDS011;27025;51.986;5.984;2023-05-07T05:40:07;26.87;;;24.57;;
18378;SDS011;27025;51.986;5.984;2023-05-07T05:42:35;26.93;;;24.53;;
18378;SDS011;27025;51.986;5.984;2023-05-07T05:45:02;26.00;;;23.90;;
18378;SDS011;27025;51.986;5.984;2023-05-07T05:47:28;25.17;;;22.67;;
18378;SDS011;27025;51.986;5.984;2023-05-07T05:50:01;26.33;;;24.07;;
18378;SDS011;27025;51.986;5.984;2023-05-07T05:52:27;25.43;;;23.20;;
18378;SDS011;27025;51.986;5.984;2023-05-07T05:54:53;25.83;;;23.63;;
18378;SDS011;27025;51.986;5.984;2023-05-07T05:57:22;26.30;;;23.83;;
18378;SDS011;27025;51.986;5.984;2023-05-07T05:59:48;26.37;;;23.97;;
18378;SDS011;27025;51.986;5.984;2023-05-07T06:02:14;26.57;;;24.27;;
18378;SDS011;27025;51.986;5.984;2023-05-07T06:04:43;25.33;;;23.03;;
18378;SDS011;27025;51.986;5.984;2023-05-07T06:07:29;25.47;;;23.30;;
18378;SDS011;27025;51.986;5.984;2023-05-07T06:09:56;26.00;;;23.27;;
18378;SDS011;27025;51.986;5.984;2023-05-07T06:12:22;26.10;;;23.60;;
18378;SDS011;27025;51.986;5.984;2023-05-07T06:14:48;26.17;;;23.87;;
18378;SDS011;27025;51.986;5.984;2023-05-07T06:17:17;25.60;;;23.30;;
18378;SDS011;27025;51.986;5.984;2023-05-07T06:19:46;26.00;;;23.80;;
18378;SDS011;27025;51.986;5.984;2023-05-07T06:22:14;27.03;;;24.53;;
18378;SDS011;27025;51.986;5.984;2023-05-07T06:24:40;27.30;;;24.70;;
18378;SDS011;27025;51.986;5.984;2023-05-07T06:27:06;27.03;;;24.63;;
18378;SDS011;27025;51.986;5.984;2023-05-07T06:29:33;28.63;;;25.93;;
18378;SDS011;27025;51.986;5.984;2023-05-07T06:32:09;28.50;;;25.90;;
18378;SDS011;27025;51.986;5.984;2023-05-07T06:34:38;28.60;;;25.93;;
18378;SDS011;27025;51.986;5.984;2023-05-07T06:37:10;29.60;;;27.00;;
18378;SDS011;27025;51.986;5.984;2023-05-07T06:39:36;29.40;;;26.63;;
18378;SDS011;27025;51.986;5.984;2023-05-07T06:42:02;29.07;;;26.47;;
18378;SDS011;27025;51.986;5.984;2023-05-07T06:44:29;30.10;;;27.30;;
18378;SDS011;27025;51.986;5.984;2023-05-07T06:46:59;30.20;;;27.40;;
18378;SDS011;27025;51.986;5.984;2023-05-07T06:49:28;29.90;;;27.30;;
18378;SDS011;27025;51.986;5.984;2023-05-07T06:51:58;29.23;;;26.70;;
18378;SDS011;27025;51.986;5.984;2023-05-07T06:54:32;28.80;;;26.10;;
18378;SDS011;27025;51.986;5.984;2023-05-07T06:57:06;28.57;;;26.07;;
18378;SDS011;27025;51.986;5.984;2023-05-07T06:59:37;29.40;;;26.73;;
18378;SDS011;27025;51.986;5.984;2023-05-07T07:02:09;28.90;;;26.23;;
18378;SDS011;27025;51.986;5.984;2023-05-07T07:04:35;30.23;;;27.43;;
18378;SDS011;27025;51.986;5.984;2023-05-07T07:07:03;28.40;;;25.90;;
18378;SDS011;27025;51.986;5.984;2023-05-07T07:09:29;29.23;;;26.53;;
18378;SDS011;27025;51.986;5.984;2023-05-07T07:11:55;29.13;;;26.57;;
18378;SDS011;27025;51.986;5.984;2023-05-07T07:14:21;28.93;;;26.20;;
18378;SDS011;27025;51.986;5.984;2023-05-07T07:16:50;28.23;;;25.63;;
18378;SDS011;27025;51.986;5.984;2023-05-07T07:19:17;27.47;;;24.97;;
18378;SDS011;27025;51.986;5.984;2023-05-07T07:21:43;28.00;;;25.50;;
18378;SDS011;27025;51.986;5.984;2023-05-07T07:24:18;27.37;;;24.67;;
18378;SDS011;27025;51.986;5.984;2023-05-07T07:26:46;27.20;;;24.60;;
18378;SDS011;27025;51.986;5.984;2023-05-07T07:29:12;27.87;;;25.27;;
18378;SDS011;27025;51.986;5.984;2023-05-07T07:31:38;27.23;;;24.90;;
18378;SDS011;27025;51.986;5.984;2023-05-07T07:34:04;28.73;;;25.83;;
18378;SDS011;27025;51.986;5.984;2023-05-07T07:36:33;26.87;;;24.57;;
18378;SDS011;27025;51.986;5.984;2023-05-07T07:38:59;27.43;;;24.73;;
18378;SDS011;27025;51.986;5.984;2023-05-07T07:41:25;27.67;;;25.07;;
18378;SDS011;27025;51.986;5.984;2023-05-07T07:43:54;26.60;;;24.10;;
18378;SDS011;27025;51.986;5.984;2023-05-07T07:46:20;27.90;;;25.20;;
18378;SDS011;27025;51.986;5.984;2023-05-07T07:48:48;27.80;;;25.30;;
18378;SDS011;27025;51.986;5.984;2023-05-07T07:51:17;26.93;;;24.27;;
18378;SDS011;27025;51.986;5.984;2023-05-07T07:53:43;28.10;;;25.33;;
18378;SDS011;27025;51.986;5.984;2023-05-07T07:56:09;26.63;;;24.13;;
18378;SDS011;27025;51.986;5.984;2023-05-07T07:58:38;26.87;;;24.37;;
18378;SDS011;27025;51.986;5.984;2023-05-07T08:01:04;26.90;;;23.97;;
18378;SDS011;27025;51.986;5.984;2023-05-07T08:03:30;27.27;;;24.67;;
18378;SDS011;27025;51.986;5.984;2023-05-07T08:05:57;26.77;;;24.07;;
18378;SDS011;27025;51.986;5.984;2023-05-07T08:08:25;26.87;;;24.23;;
18378;SDS011;27025;51.986;5.984;2023-05-07T08:10:51;27.70;;;24.97;;
18378;SDS011;27025;51.986;5.984;2023-05-07T08:13:17;26.53;;;24.03;;
18378;SDS011;27025;51.986;5.984;2023-05-07T08:15:46;27.93;;;25.33;;
18378;SDS011;27025;51.986;5.984;2023-05-07T08:18:12;26.93;;;24.33;;
18378;SDS011;27025;51.986;5.984;2023-05-07T08:20:38;28.63;;;25.60;;
18378;SDS011;27025;51.986;5.984;2023-05-07T08:23:05;27.90;;;25.30;;
18378;SDS011;27025;51.986;5.984;2023-05-07T08:25:34;27.33;;;24.63;;
18378;SDS011;27025;51.986;5.984;2023-05-07T08:28:00;28.13;;;25.50;;
18378;SDS011;27025;51.986;5.984;2023-05-07T08:30:31;26.93;;;24.33;;
18378;SDS011;27025;51.986;5.984;2023-05-07T08:32:57;27.83;;;24.83;;
18378;SDS011;27025;51.986;5.984;2023-05-07T08:35:23;25.33;;;22.77;;
18378;SDS011;27025;51.986;5.984;2023-05-07T08:37:53;26.10;;;23.60;;
18378;SDS011;27025;51.986;5.984;2023-05-07T08:40:19;27.23;;;24.47;;
18378;SDS011;27025;51.986;5.984;2023-05-07T08:42:48;25.77;;;22.80;;
18378;SDS011;27025;51.986;5.984;2023-05-07T08:45:17;23.03;;;20.83;;
18378;SDS011;27025;51.986;5.984;2023-05-07T08:47:44;24.40;;;22.00;;
18378;SDS011;27025;51.986;5.984;2023-05-07T08:50:12;24.77;;;22.23;;
18378;SDS011;27025;51.986;5.984;2023-05-07T08:52:41;24.50;;;22.20;;
18378;SDS011;27025;51.986;5.984;2023-05-07T08:55:08;24.27;;;22.07;;
18378;SDS011;27025;51.986;5.984;2023-05-07T08:57:37;24.07;;;21.87;;
18378;SDS011;27025;51.986;5.984;2023-05-07T09:00:04;25.63;;;23.00;;
18378;SDS011;27025;51.986;5.984;2023-05-07T09:02:34;25.60;;;22.93;;
18378;SDS011;27025;51.986;5.984;2023-05-07T09:05:01;25.23;;;22.10;;
18378;SDS011;27025;51.986;5.984;2023-05-07T09:07:27;25.10;;;22.87;;
18378;SDS011;27025;51.986;5.984;2023-05-07T09:09:53;23.17;;;20.93;;
18378;SDS011;27025;51.986;5.984;2023-05-07T09:12:20;24.53;;;22.23;;
18378;SDS011;27025;51.986;5.984;2023-05-07T09:14:47;24.63;;;22.23;;
18378;SDS011;27025;51.986;5.984;2023-05-07T09:17:13;24.60;;;22.23;;
18378;SDS011;27025;51.986;5.984;2023-05-07T09:19:39;24.20;;;21.93;;
18378;SDS011;27025;51.986;5.984;2023-05-07T09:22:08;24.67;;;22.17;;
18378;SDS011;27025;51.986;5.984;2023-05-07T09:24:35;24.53;;;22.37;;
18378;SDS011;27025;51.986;5.984;2023-05-07T09:27:09;22.60;;;20.53;;
18378;SDS011;27025;51.986;5.984;2023-05-07T09:29:40;22.20;;;19.90;;
18378;SDS011;27025;51.986;5.984;2023-05-07T09:32:07;23.57;;;21.27;;
18378;SDS011;27025;51.986;5.984;2023-05-07T09:34:34;22.60;;;20.30;;
18378;SDS011;27025;51.986;5.984;2023-05-07T09:37:01;21.57;;;19.47;;
18378;SDS011;27025;51.986;5.984;2023-05-07T09:42:09;22.37;;;20.37;;
18378;SDS011;27025;51.986;5.984;2023-05-07T09:44:39;22.53;;;20.40;;
18378;SDS011;27025;51.986;5.984;2023-05-07T09:47:06;22.40;;;20.30;;
18378;SDS011;27025;51.986;5.984;2023-05-07T09:49:36;21.27;;;19.40;;
18378;SDS011;27025;51.986;5.984;2023-05-07T09:52:02;23.20;;;21.17;;
18378;SDS011;27025;51.986;5.984;2023-05-07T09:54:33;22.67;;;20.77;;
18378;SDS011;27025;51.986;5.984;2023-05-07T09:57:01;21.77;;;19.90;;
18378;SDS011;27025;51.986;5.984;2023-05-07T09:59:28;21.35;;;19.45;;
18378;SDS011;27025;51.986;5.984;2023-05-07T10:01:58;21.52;;;19.55;;
18378;SDS011;27025;51.986;5.984;2023-05-07T10:04:27;20.37;;;18.53;;
18378;SDS011;27025;51.986;5.984;2023-05-07T10:06:53;19.80;;;17.97;;
18378;SDS011;27025;51.986;5.984;2023-05-07T10:09:20;21.38;;;19.52;;
18378;SDS011;27025;51.986;5.984;2023-05-07T10:11:48;22.30;;;20.30;;
18378;SDS011;27025;51.986;5.984;2023-05-07T10:14:17;20.67;;;18.88;;
18378;SDS011;27025;51.986;5.984;2023-05-07T10:16:45;20.52;;;18.52;;
18378;SDS011;27025;51.986;5.984;2023-05-07T10:19:12;18.83;;;16.90;;
18378;SDS011;27025;51.986;5.984;2023-05-07T10:21:44;17.83;;;16.17;;
18378;SDS011;27025;51.986;5.984;2023-05-07T10:24:12;19.63;;;17.83;;
18378;SDS011;27025;51.986;5.984;2023-05-07T10:26:42;19.55;;;17.85;;
18378;SDS011;27025;51.986;5.984;2023-05-07T10:29:15;18.75;;;17.17;;
18378;SDS011;27025;51.986;5.984;2023-05-07T10:34:47;17.45;;;15.85;;
18378;SDS011;27025;51.986;5.984;2023-05-07T10:37:14;16.67;;;15.18;;
18378;SDS011;27025;51.986;5.984;2023-05-07T10:39:41;16.77;;;15.25;;
18378;SDS011;27025;51.986;5.984;2023-05-07T10:42:07;16.05;;;14.75;;
18378;SDS011;27025;51.986;5.984;2023-05-07T10:44:36;15.57;;;14.27;;
18378;SDS011;27025;51.986;5.984;2023-05-07T10:47:04;14.85;;;13.50;;
18378;SDS011;27025;51.986;5.984;2023-05-07T10:49:33;15.35;;;14.05;;
18378;SDS011;27025;51.986;5.984;2023-05-07T10:52:12;14.30;;;13.10;;
18378;SDS011;27025;51.986;5.984;2023-05-07T10:54:39;16.27;;;14.88;;
18378;SDS011;27025;51.986;5.984;2023-05-07T10:59:50;15.45;;;14.15;;
18378;SDS011;27025;51.986;5.984;2023-05-07T11:02:19;15.20;;;14.00;;
18378;SDS011;27025;51.986;5.984;2023-05-07T11:04:45;15.70;;;14.40;;
18378;SDS011;27025;51.986;5.984;2023-05-07T11:07:16;16.00;;;14.60;;
18378;SDS011;27025;51.986;5.984;2023-05-07T11:15:15;15.18;;;13.88;;
18378;SDS011;27025;51.986;5.984;2023-05-07T11:17:54;14.27;;;13.18;;
18378;SDS011;27025;51.986;5.984;2023-05-07T11:20:20;15.30;;;14.00;;
18378;SDS011;27025;51.986;5.984;2023-05-07T11:22:49;14.60;;;13.50;;
18378;SDS011;27025;51.986;5.984;2023-05-07T11:25:18;15.98;;;14.68;;
18378;SDS011;27025;51.986;5.984;2023-05-07T11:27:46;16.42;;;14.93;;
18378;SDS011;27025;51.986;5.984;2023-05-07T11:30:19;15.50;;;14.20;;
18378;SDS011;27025;51.986;5.984;2023-05-07T11:32:47;16.03;;;14.73;;
18378;SDS011;27025;51.986;5.984;2023-05-07T11:35:14;15.70;;;14.30;;
18378;SDS011;27025;51.986;5.984;2023-05-07T11:37:41;14.73;;;13.43;;
18378;SDS011;27025;51.986;5.984;2023-05-07T11:40:10;14.80;;;13.60;;
18378;SDS011;27025;51.986;5.984;2023-05-07T11:42:39;14.35;;;13.05;;
18378;SDS011;27025;51.986;5.984;2023-05-07T11:45:07;15.30;;;14.10;;
18378;SDS011;27025;51.986;5.984;2023-05-07T11:47:34;15.07;;;13.70;;
18378;SDS011;27025;51.986;5.984;2023-05-07T11:50:04;15.10;;;13.60;;
18378;SDS011;27025;51.986;5.984;2023-05-07T11:52:31;14.52;;;13.32;;
18378;SDS011;27025;51.986;5.984;2023-05-07T11:54:58;15.40;;;14.00;;
18378;SDS011;27025;51.986;5.984;2023-05-07T11:57:27;14.43;;;13.02;;
18378;SDS011;27025;51.986;5.984;2023-05-07T11:59:56;15.90;;;14.45;;
18378;SDS011;27025;51.986;5.984;2023-05-07T12:02:23;15.87;;;14.57;;
18378;SDS011;27025;51.986;5.984;2023-05-07T12:04:53;15.43;;;14.10;;
18378;SDS011;27025;51.986;5.984;2023-05-07T12:07:20;14.93;;;13.63;;
18378;SDS011;27025;51.986;5.984;2023-05-07T12:09:46;14.43;;;13.20;;
18378;SDS011;27025;51.986;5.984;2023-05-07T12:12:13;14.27;;;13.05;;
18378;SDS011;27025;51.986;5.984;2023-05-07T12:14:43;13.60;;;12.45;;
18378;SDS011;27025;51.986;5.984;2023-05-07T12:17:12;15.60;;;12.52;;
18378;SDS011;27025;51.986;5.984;2023-05-07T12:19:39;13.97;;;12.63;;
18378;SDS011;27025;51.986;5.984;2023-05-07T12:22:09;14.30;;;12.40;;
18378;SDS011;27025;51.986;5.984;2023-05-07T12:24:43;13.10;;;11.95;;
18378;SDS011;27025;51.986;5.984;2023-05-07T12:27:10;13.02;;;11.88;;
18378;SDS011;27025;51.986;5.984;2023-05-07T12:29:36;13.43;;;12.27;;
18378;SDS011;27025;51.986;5.984;2023-05-07T12:32:07;12.60;;;11.50;;
18378;SDS011;27025;51.986;5.984;2023-05-07T12:34:39;12.77;;;11.57;;
18378;SDS011;27025;51.986;5.984;2023-05-07T12:37:07;12.68;;;11.55;;
18378;SDS011;27025;51.986;5.984;2023-05-07T12:39:33;12.73;;;11.53;;
18378;SDS011;27025;51.986;5.984;2023-05-07T12:41:59;12.57;;;11.48;;
18378;SDS011;27025;51.986;5.984;2023-05-07T12:44:29;12.90;;;11.70;;
18378;SDS011;27025;51.986;5.984;2023-05-07T12:46:55;12.30;;;11.30;;
18378;SDS011;27025;51.986;5.984;2023-05-07T12:49:27;13.98;;;12.75;;
18378;SDS011;27025;51.986;5.984;2023-05-07T12:51:53;13.07;;;11.85;;
18378;SDS011;27025;51.986;5.984;2023-05-07T12:54:33;13.23;;;12.13;;
18378;SDS011;27025;51.986;5.984;2023-05-07T12:57:02;13.85;;;12.65;;
18378;SDS011;27025;51.986;5.984;2023-05-07T12:59:32;13.20;;;12.00;;
18378;SDS011;27025;51.986;5.984;2023-05-07T13:02:01;13.40;;;12.30;;
18378;SDS011;27025;51.986;5.984;2023-05-07T13:04:27;13.40;;;12.20;;
18378;SDS011;27025;51.986;5.984;2023-05-07T13:06:53;12.98;;;11.85;;
18378;SDS011;27025;51.986;5.984;2023-05-07T13:09:19;13.13;;;11.95;;
18378;SDS011;27025;51.986;5.984;2023-05-07T13:11:45;13.40;;;12.20;;
18378;SDS011;27025;51.986;5.984;2023-05-07T13:14:12;13.20;;;12.07;;
18378;SDS011;27025;51.986;5.984;2023-05-07T13:16:38;13.30;;;12.20;;
18378;SDS011;27025;51.986;5.984;2023-05-07T13:19:04;13.50;;;12.30;;
18378;SDS011;27025;51.986;5.984;2023-05-07T13:21:30;13.30;;;11.80;;
18378;SDS011;27025;51.986;5.984;2023-05-07T13:23:59;13.55;;;12.25;;
18378;SDS011;27025;51.986;5.984;2023-05-07T13:26:25;13.30;;;12.10;;
18378;SDS011;27025;51.986;5.984;2023-05-07T13:28:54;13.03;;;11.80;;
18378;SDS011;27025;51.986;5.984;2023-05-07T13:31:21;13.90;;;11.90;;
18378;SDS011;27025;51.986;5.984;2023-05-07T13:33:47;15.30;;;13.68;;
18378;SDS011;27025;51.986;5.984;2023-05-07T13:36:15;14.85;;;13.45;;
18378;SDS011;27025;51.986;5.984;2023-05-07T13:38:42;15.03;;;13.60;;
18378;SDS011;27025;51.986;5.984;2023-05-07T13:41:08;14.82;;;13.50;;
18378;SDS011;27025;51.986;5.984;2023-05-07T13:43:37;14.93;;;13.50;;
18378;SDS011;27025;51.986;5.984;2023-05-07T13:46:03;15.75;;;14.18;;
18378;SDS011;27025;51.986;5.984;2023-05-07T13:48:29;15.68;;;14.27;;
18378;SDS011;27025;51.986;5.984;2023-05-07T13:50:55;16.60;;;14.98;;
18378;SDS011;27025;51.986;5.984;2023-05-07T13:53:23;15.50;;;14.07;;
18378;SDS011;27025;51.986;5.984;2023-05-07T13:55:49;14.95;;;13.63;;
18378;SDS011;27025;51.986;5.984;2023-05-07T13:58:15;15.05;;;13.55;;
18378;SDS011;27025;51.986;5.984;2023-05-07T14:00:44;15.10;;;13.60;;
18378;SDS011;27025;51.986;5.984;2023-05-07T14:03:10;15.20;;;13.73;;
18378;SDS011;27025;51.986;5.984;2023-05-07T14:05:36;14.10;;;12.80;;
18378;SDS011;27025;51.986;5.984;2023-05-07T14:08:02;14.23;;;12.93;;
18378;SDS011;27025;51.986;5.984;2023-05-07T14:10:32;13.88;;;12.45;;
18378;SDS011;27025;51.986;5.984;2023-05-07T14:12:59;13.60;;;12.30;;
18378;SDS011;27025;51.986;5.984;2023-05-07T14:15:28;13.93;;;12.63;;
18378;SDS011;27025;51.986;5.984;2023-05-07T14:17:54;13.97;;;12.67;;
18378;SDS011;27025;51.986;5.984;2023-05-07T14:20:20;13.23;;;11.93;;
18378;SDS011;27025;51.986;5.984;2023-05-07T14:22:46;13.77;;;12.55;;
18378;SDS011;27025;51.986;5.984;2023-05-07T14:25:15;11.52;;;10.32;;
18378;SDS011;27025;51.986;5.984;2023-05-07T14:27:41;11.75;;;10.60;;
18378;SDS011;27025;51.986;5.984;2023-05-07T14:30:07;10.77;;;9.70;;
18378;SDS011;27025;51.986;5.984;2023-05-07T14:32:33;8.10;;;7.30;;
18378;SDS011;27025;51.986;5.984;2023-05-07T14:35:01;5.50;;;5.00;;
18378;SDS011;27025;51.986;5.984;2023-05-07T14:37:28;3.75;;;3.17;;
18378;SDS011;27025;51.986;5.984;2023-05-07T14:39:54;3.90;;;2.23;;